createdAt,value
2018-05-19T00:01:23.598Z,6.43
2018-05-19T00:03:51.974Z,7.15
2018-05-19T00:06:20.373Z,6.40
2018-05-19T00:08:48.776Z,6.80
2018-05-19T00:11:17.221Z,6.90
2018-05-19T00:13:45.609Z,7.32
2018-05-19T00:16:13.990Z,7.18
2018-05-19T00:18:42.354Z,8.80
2018-05-19T00:21:11.513Z,7.37
2018-05-19T00:23:39.899Z,8.45
2018-05-19T00:26:08.306Z,7.68
2018-05-19T00:28:38.197Z,8.30
2018-05-19T00:31:06.583Z,7.30
2018-05-19T00:33:34.949Z,7.40
2018-05-19T00:36:03.321Z,7.82
2018-05-19T00:38:31.717Z,7.90
2018-05-19T00:41:00.092Z,8.63
2018-05-19T00:43:28.509Z,7.93
2018-05-19T00:45:58.389Z,8.30
2018-05-19T00:48:26.773Z,8.43
2018-05-19T00:50:55.142Z,8.52
2018-05-19T00:53:23.522Z,8.30
2018-05-19T00:55:51.897Z,8.27
2018-05-19T00:58:20.314Z,9.25
2018-05-19T01:00:48.823Z,10.23
2018-05-19T01:03:17.187Z,8.95
2018-05-19T01:05:45.587Z,7.95
2018-05-19T01:08:13.990Z,8.60
2018-05-19T01:10:43.208Z,9.18
2018-05-19T01:13:12.361Z,10.05
2018-05-19T01:15:40.758Z,7.80
2018-05-19T01:18:09.137Z,9.45
2018-05-19T01:20:37.506Z,9.15
2018-05-19T01:23:05.873Z,9.75
2018-05-19T01:25:34.253Z,8.23
2018-05-19T01:28:02.630Z,8.90
2018-05-19T01:30:31.022Z,9.73
2018-05-19T01:32:59.397Z,9.10
2018-05-19T01:35:27.790Z,9.05
2018-05-19T01:37:56.160Z,10.05
2018-05-19T01:40:24.573Z,10.13
2018-05-19T01:42:52.949Z,10.55
2018-05-19T01:45:21.387Z,11.60
2018-05-19T01:47:49.809Z,10.40
2018-05-19T01:50:18.667Z,13.13
2018-05-19T01:52:47.153Z,11.77
2018-05-19T01:55:15.558Z,11.00
2018-05-19T01:57:43.947Z,11.82
2018-05-19T02:00:12.389Z,11.55
2018-05-19T02:02:41.534Z,11.50
2018-05-19T02:05:09.901Z,11.55
2018-05-19T02:07:38.440Z,12.40
2018-05-19T02:10:06.967Z,12.32
2018-05-19T02:12:35.382Z,11.07
2018-05-19T02:15:03.770Z,11.25
2018-05-19T02:17:32.141Z,12.80
2018-05-19T02:20:00.553Z,11.93
2018-05-19T02:22:29.687Z,11.40
2018-05-19T02:24:58.853Z,12.88
2018-05-19T02:27:28.737Z,13.90
2018-05-19T02:29:57.106Z,12.50
2018-05-19T02:32:25.483Z,12.93
2018-05-19T02:34:53.845Z,13.70
2018-05-19T02:37:22.991Z,13.27
2018-05-19T02:39:51.383Z,13.65
2018-05-19T02:42:19.749Z,13.93
2018-05-19T02:44:48.111Z,13.55
2018-05-19T02:47:16.483Z,13.62
2018-05-19T02:49:45.625Z,11.68
2018-05-19T02:52:14.014Z,14.38
2018-05-19T02:54:42.373Z,14.75
2018-05-19T02:57:10.802Z,13.77
2018-05-19T02:59:39.196Z,12.30
2018-05-19T03:02:07.616Z,13.65
2018-05-19T03:04:36.077Z,12.77
2018-05-19T03:07:05.295Z,12.13
2018-05-19T03:09:33.665Z,14.23
2018-05-19T03:12:02.878Z,14.82
2018-05-19T03:14:31.354Z,13.00
2018-05-19T03:17:00.496Z,13.00
2018-05-19T03:19:28.889Z,14.43
2018-05-19T03:21:57.265Z,14.43
2018-05-19T03:24:25.630Z,14.82
2018-05-19T03:26:54.010Z,13.35
2018-05-19T03:29:22.414Z,13.40
2018-05-19T03:31:50.794Z,13.35
2018-05-19T03:34:19.244Z,14.13
2018-05-19T03:36:47.621Z,14.93
2018-05-19T03:39:16.774Z,14.50
2018-05-19T03:41:45.149Z,15.30
2018-05-19T03:44:13.523Z,15.82
2018-05-19T03:46:41.892Z,15.65
2018-05-19T03:49:10.288Z,14.10
2018-05-19T03:51:38.856Z,15.23
2018-05-19T03:54:07.236Z,15.32
2018-05-19T03:56:35.632Z,14.07
2018-05-19T03:59:21.743Z,15.93
2018-05-19T04:04:52.573Z,13.43
2018-05-19T04:07:21.013Z,15.35
2018-05-19T04:09:50.153Z,14.95
2018-05-19T04:12:18.526Z,15.85
2018-05-19T04:14:47.009Z,16.05
2018-05-19T04:17:15.401Z,14.38
2018-05-19T04:19:43.769Z,15.40
2018-05-19T04:22:12.138Z,15.38
2018-05-19T04:24:41.277Z,15.27
2018-05-19T04:27:09.681Z,13.25
2018-05-19T04:29:38.066Z,14.82
2018-05-19T04:32:06.457Z,14.27
2018-05-19T04:34:34.873Z,16.00
2018-05-19T04:37:03.246Z,14.85
2018-05-19T04:39:32.477Z,13.13
2018-05-19T04:42:00.859Z,13.68
2018-05-19T04:44:29.263Z,14.30
2018-05-19T04:46:57.667Z,14.48
2018-05-19T04:49:27.013Z,12.90
2018-05-19T04:51:55.397Z,13.90
2018-05-19T04:54:24.559Z,14.30
2018-05-19T04:56:52.949Z,11.93
2018-05-19T04:59:21.342Z,14.85
2018-05-19T05:01:50.489Z,13.60
2018-05-19T05:04:18.901Z,13.62
2018-05-19T05:06:47.276Z,12.80
2018-05-19T05:09:15.720Z,12.93
2018-05-19T05:11:44.169Z,13.02
2018-05-19T05:14:13.308Z,13.00
2018-05-19T05:16:41.709Z,13.30
2018-05-19T05:19:10.201Z,12.73
2018-05-19T05:21:38.606Z,11.30
2018-05-19T05:24:06.995Z,12.57
2018-05-19T05:26:36.165Z,12.07
2018-05-19T05:29:04.569Z,12.52
2018-05-19T05:31:33.081Z,13.07
2018-05-19T05:34:02.255Z,13.02
2018-05-19T05:36:30.705Z,11.60
2018-05-19T05:38:59.084Z,13.00
2018-05-19T05:41:27.480Z,13.33
2018-05-19T05:43:55.898Z,12.20
2018-05-19T05:46:24.390Z,12.30
2018-05-19T05:48:52.878Z,13.50
2018-05-19T05:51:21.290Z,13.30
2018-05-19T05:53:50.444Z,11.60
2018-05-19T05:56:18.910Z,13.30
2018-05-19T05:58:47.345Z,11.50
2018-05-19T06:01:16.558Z,13.70
2018-05-19T06:03:44.978Z,12.83
2018-05-19T06:06:13.409Z,13.03
2018-05-19T06:08:41.796Z,13.37
2018-05-19T06:11:11.867Z,12.40
2018-05-19T06:13:40.282Z,12.20
2018-05-19T06:16:08.741Z,11.20
2018-05-19T06:18:37.265Z,11.93
2018-05-19T06:21:05.622Z,11.20
2018-05-19T06:23:34.037Z,11.93
2018-05-19T06:26:03.214Z,12.27
2018-05-19T06:28:31.708Z,11.53
2018-05-19T06:31:00.105Z,10.40
2018-05-19T06:33:29.258Z,11.70
2018-05-19T06:35:57.790Z,12.50
2018-05-19T06:38:26.950Z,11.33
2018-05-19T06:40:55.355Z,10.70
2018-05-19T06:43:23.751Z,12.73
2018-05-19T06:45:52.121Z,11.00
2018-05-19T06:48:20.644Z,11.80
2018-05-19T06:50:49.779Z,10.97
2018-05-19T06:53:18.197Z,10.87
2018-05-19T06:55:46.591Z,11.60
2018-05-19T06:58:15.733Z,12.13
2018-05-19T07:00:44.114Z,11.60
2018-05-19T07:03:12.501Z,12.73
2018-05-19T07:05:40.893Z,11.20
2018-05-19T07:08:09.363Z,11.60
2018-05-19T07:10:37.693Z,11.87
2018-05-19T07:13:06.189Z,12.23
2018-05-19T07:15:34.574Z,11.63
2018-05-19T07:18:03.056Z,11.00
2018-05-19T07:20:31.534Z,12.00
2018-05-19T07:22:59.931Z,11.73
2018-05-19T07:25:28.323Z,12.03
2018-05-19T07:27:57.467Z,11.17
2018-05-19T07:30:25.856Z,11.70
2018-05-19T07:32:54.269Z,11.03
2018-05-19T07:35:22.655Z,10.73
2018-05-19T07:37:51.154Z,11.70
2018-05-19T07:40:20.311Z,12.23
2018-05-19T07:42:48.741Z,11.63
2018-05-19T07:45:17.901Z,11.50
2018-05-19T07:47:46.290Z,11.50
2018-05-19T07:50:14.878Z,12.23
2018-05-19T07:52:44.030Z,11.90
2018-05-19T07:55:12.456Z,11.90
2018-05-19T07:57:40.838Z,11.33
2018-05-19T08:00:09.252Z,11.07
2018-05-19T08:02:37.669Z,15.83
2018-05-19T08:05:06.070Z,11.23
2018-05-19T08:07:34.493Z,12.40
2018-05-19T08:10:02.928Z,12.60
2018-05-19T08:12:31.393Z,12.23
2018-05-19T08:14:59.712Z,11.87
2018-05-19T08:17:28.137Z,11.17
2018-05-19T08:19:56.526Z,12.20
2018-05-19T08:22:24.917Z,12.10
2018-05-19T08:24:54.079Z,12.23
2018-05-19T08:27:22.485Z,12.20
2018-05-19T08:29:50.910Z,13.37
2018-05-19T08:32:19.321Z,12.60
2018-05-19T08:34:47.708Z,12.87
2018-05-19T08:37:16.114Z,13.93
2018-05-19T08:39:44.494Z,14.93
2018-05-19T08:42:12.881Z,13.30
2018-05-19T08:44:41.289Z,12.90
2018-05-19T08:47:10.515Z,14.30
2018-05-19T08:49:38.894Z,15.17
2018-05-19T08:52:07.281Z,13.50
2018-05-19T08:54:35.693Z,15.40
2018-05-19T08:57:04.072Z,14.20
2018-05-19T08:59:33.237Z,15.57
2018-05-19T09:02:01.722Z,16.90
2018-05-19T09:04:30.066Z,16.37
2018-05-19T09:06:58.458Z,18.00
2018-05-19T09:09:26.827Z,18.47
2018-05-19T09:11:55.321Z,19.40
2018-05-19T09:14:23.709Z,17.93
2018-05-19T09:16:52.141Z,22.67
2018-05-19T09:19:20.569Z,18.27
2018-05-19T09:21:48.969Z,21.67
2018-05-19T09:24:17.344Z,23.50
2018-05-19T09:26:45.724Z,21.93
2018-05-19T09:29:14.154Z,25.87
2018-05-19T09:31:42.641Z,22.40
2018-05-19T09:34:10.963Z,23.83
2018-05-19T09:36:39.359Z,18.67
2018-05-19T09:39:07.759Z,23.10
2018-05-19T09:41:36.922Z,23.57
2018-05-19T09:44:05.317Z,22.90
2018-05-19T09:46:33.750Z,25.80
2018-05-19T09:49:02.147Z,24.97
2018-05-19T09:51:30.574Z,24.57
2018-05-19T09:53:58.957Z,25.03
2018-05-19T09:56:27.359Z,24.07
2018-05-19T09:58:55.742Z,24.13
2018-05-19T10:01:24.881Z,25.27
2018-05-19T10:03:53.314Z,27.13
2018-05-19T10:06:21.703Z,29.00
2018-05-19T10:08:50.126Z,27.80
2018-05-19T10:11:18.552Z,26.63
2018-05-19T10:13:46.966Z,29.20
2018-05-19T10:16:16.110Z,28.37
2018-05-19T10:18:44.496Z,29.97
2018-05-19T10:21:12.882Z,29.13
2018-05-19T10:23:41.325Z,29.20
2018-05-19T10:26:10.494Z,28.97
2018-05-19T10:28:38.881Z,29.27
2018-05-19T10:31:07.281Z,30.17
2018-05-19T10:33:35.671Z,29.50
2018-05-19T10:36:04.859Z,28.20
2018-05-19T10:38:33.282Z,26.27
2018-05-19T10:41:01.677Z,25.87
2018-05-19T10:43:30.060Z,24.17
2018-05-19T10:45:58.457Z,25.40
2018-05-19T10:48:27.605Z,25.63
2018-05-19T10:50:56.767Z,25.10
2018-05-19T10:53:25.159Z,27.00
2018-05-19T10:55:53.585Z,26.40
2018-05-19T10:58:21.983Z,27.07
2018-05-19T11:00:50.375Z,28.07
2018-05-19T11:03:18.793Z,25.20
2018-05-19T11:05:47.331Z,28.40
2018-05-19T11:08:15.803Z,28.33
2018-05-19T11:10:44.978Z,28.50
2018-05-19T11:13:13.344Z,26.63
2018-05-19T11:15:41.729Z,29.43
2018-05-19T11:18:10.113Z,29.30
2018-05-19T11:20:38.487Z,26.73
2018-05-19T11:23:06.866Z,27.30
2018-05-19T11:25:35.346Z,25.00
2018-05-19T11:28:03.726Z,27.10
2018-05-19T11:30:32.110Z,26.27
2018-05-19T11:33:00.509Z,25.70
2018-05-19T11:35:28.918Z,27.10
2018-05-19T11:37:57.447Z,24.83
2018-05-19T11:40:25.865Z,26.37
2018-05-19T11:42:55.020Z,26.10
2018-05-19T11:45:23.450Z,23.70
2018-05-19T11:47:51.821Z,23.73
2018-05-19T11:50:20.249Z,24.03
2018-05-19T11:52:49.411Z,25.03
2018-05-19T11:55:17.826Z,23.37
2018-05-19T11:57:46.818Z,23.53
2018-05-19T12:00:15.723Z,24.73
2018-05-19T12:02:44.933Z,25.30
2018-05-19T12:05:13.355Z,24.63
2018-05-19T12:07:41.697Z,24.27
2018-05-19T12:10:10.846Z,24.23
2018-05-19T12:12:39.258Z,25.37
2018-05-19T12:15:07.605Z,25.20
2018-05-19T12:17:36.897Z,26.23
2018-05-19T12:20:05.312Z,24.60
2018-05-19T12:22:33.711Z,26.10
2018-05-19T12:25:02.140Z,23.43
2018-05-19T12:27:30.535Z,24.93
2018-05-19T12:29:58.925Z,24.03
2018-05-19T12:32:27.321Z,24.00
2018-05-19T12:34:55.709Z,24.70
2018-05-19T12:37:24.117Z,25.73
2018-05-19T12:39:53.388Z,25.10
2018-05-19T12:42:21.812Z,24.60
2018-05-19T12:44:50.217Z,24.50
2018-05-19T12:47:19.381Z,23.80
2018-05-19T12:49:47.778Z,22.77
2018-05-19T12:52:16.180Z,22.17
2018-05-19T12:54:45.333Z,22.20
2018-05-19T12:57:14.519Z,24.57
2018-05-19T12:59:42.922Z,24.20
2018-05-19T13:02:11.481Z,22.93
2018-05-19T13:04:39.871Z,23.23
2018-05-19T13:07:08.289Z,24.83
2018-05-19T13:09:36.661Z,23.60
2018-05-19T13:12:05.073Z,22.80
2018-05-19T13:14:33.447Z,24.93
2018-05-19T13:17:01.909Z,24.90
2018-05-19T13:19:30.358Z,24.00
2018-05-19T13:21:58.756Z,23.57
2018-05-19T13:24:27.179Z,21.50
2018-05-19T13:26:55.607Z,23.60
2018-05-19T13:29:24.223Z,23.60
2018-05-19T13:31:52.606Z,21.07
2018-05-19T13:34:21.047Z,23.53
2018-05-19T13:36:50.218Z,24.60
2018-05-19T13:39:18.590Z,24.10
2018-05-19T13:41:47.142Z,22.00
2018-05-19T13:44:15.532Z,20.93
2018-05-19T13:46:43.967Z,21.30
2018-05-19T13:49:12.289Z,22.87
2018-05-19T13:51:40.723Z,22.50
2018-05-19T13:54:09.123Z,21.97
2018-05-19T13:56:37.505Z,21.67
2018-05-19T13:59:06.721Z,22.80
2018-05-19T14:01:36.845Z,22.10
2018-05-19T14:04:05.287Z,21.80
2018-05-19T14:06:33.813Z,22.73
2018-05-19T14:09:02.981Z,23.50
2018-05-19T14:11:31.366Z,22.10
2018-05-19T14:13:59.778Z,21.33
2018-05-19T14:16:29.016Z,22.07
2018-05-19T14:18:57.388Z,20.87
2018-05-19T14:21:25.784Z,19.90
2018-05-19T14:23:54.383Z,20.87
2018-05-19T14:26:22.794Z,21.67
2018-05-19T14:28:51.244Z,18.73
2018-05-19T14:31:19.653Z,19.73
2018-05-19T14:33:48.277Z,21.70
2018-05-19T14:36:17.562Z,21.40
2018-05-19T14:38:45.949Z,19.87
2018-05-19T14:41:14.370Z,21.73
2018-05-19T14:43:42.746Z,19.97
2018-05-19T14:46:11.209Z,18.80
2018-05-19T14:48:40.386Z,19.27
2018-05-19T14:51:08.787Z,19.33
2018-05-19T14:53:37.166Z,19.20
2018-05-19T14:56:05.579Z,20.10
2018-05-19T14:58:33.994Z,18.37
2018-05-19T15:01:02.370Z,18.77
2018-05-19T15:03:30.769Z,17.90
2018-05-19T15:05:59.176Z,16.87
2018-05-19T15:08:27.733Z,21.07
2018-05-19T15:10:56.888Z,19.07
2018-05-19T15:13:26.067Z,17.83
2018-05-19T15:15:54.460Z,21.53
2018-05-19T15:18:23.605Z,19.90
2018-05-19T15:20:51.997Z,19.57
2018-05-19T15:23:20.597Z,17.93
2018-05-19T15:25:48.787Z,17.00
2018-05-19T15:28:17.178Z,17.70
2018-05-19T15:30:45.574Z,17.40
2018-05-19T15:33:13.957Z,18.30
2018-05-19T15:35:42.374Z,15.40
2018-05-19T15:38:10.782Z,17.17
2018-05-19T15:40:39.161Z,15.90
2018-05-19T15:43:07.545Z,16.90
2018-05-19T15:45:35.938Z,17.77
2018-05-19T15:48:04.364Z,14.87
2018-05-19T15:50:32.752Z,16.80
2018-05-19T15:53:01.926Z,15.77
2018-05-19T15:55:30.316Z,15.73
2018-05-19T15:57:58.732Z,18.97
2018-05-19T16:00:27.890Z,16.93
2018-05-19T16:02:56.270Z,18.60
2018-05-19T16:05:24.659Z,17.57
2018-05-19T16:07:53.061Z,17.70
2018-05-19T16:10:21.443Z,16.10
2018-05-19T16:12:49.855Z,16.43
2018-05-19T16:15:18.278Z,16.53
2018-05-19T16:17:46.678Z,17.50
2018-05-19T16:20:15.072Z,16.70
2018-05-19T16:22:43.458Z,15.60
2018-05-19T16:25:11.866Z,15.43
2018-05-19T16:27:41.035Z,19.20
2018-05-19T16:30:09.483Z,18.50
2018-05-19T16:32:37.898Z,17.03
2018-05-19T16:35:06.293Z,17.77
2018-05-19T16:37:34.737Z,17.67
2018-05-19T16:40:03.107Z,16.43
2018-05-19T16:42:31.526Z,17.57
2018-05-19T16:44:59.994Z,15.27
2018-05-19T16:47:28.381Z,16.43
2018-05-19T16:49:56.743Z,16.30
2018-05-19T16:52:25.225Z,16.53
2018-05-19T16:54:54.176Z,15.97
2018-05-19T16:57:22.553Z,17.77
2018-05-19T16:59:50.958Z,16.40
2018-05-19T17:02:20.112Z,17.63
2018-05-19T17:04:48.506Z,16.00
2018-05-19T17:07:16.901Z,14.97
2018-05-19T17:09:45.318Z,15.40
2018-05-19T17:12:14.540Z,17.10
2018-05-19T17:14:42.913Z,17.57
2018-05-19T17:17:11.411Z,15.37
2018-05-19T17:19:39.812Z,15.30
2018-05-19T17:22:08.320Z,16.90
2018-05-19T17:24:37.409Z,15.10
2018-05-19T17:27:05.806Z,15.63
2018-05-19T17:29:34.218Z,15.83
2018-05-19T17:32:02.681Z,15.50
2018-05-19T17:34:31.139Z,15.53
2018-05-19T17:36:59.563Z,15.60
2018-05-19T17:39:28.027Z,16.17
2018-05-19T17:41:56.382Z,16.23
2018-05-19T17:44:24.931Z,16.50
2018-05-19T17:46:54.233Z,17.83
2018-05-19T17:49:23.371Z,16.80
2018-05-19T17:51:51.779Z,15.93
2018-05-19T17:54:20.203Z,15.07
2018-05-19T17:56:49.373Z,15.57
2018-05-19T17:59:17.765Z,16.77
2018-05-19T18:01:46.144Z,15.20
2018-05-19T18:04:14.571Z,14.83
2018-05-19T18:06:43.010Z,16.43
2018-05-19T18:09:11.403Z,14.70
2018-05-19T18:11:39.786Z,16.73
2018-05-19T18:14:08.174Z,13.80
2018-05-19T18:16:36.592Z,15.10
2018-05-19T18:19:05.010Z,16.00
2018-05-19T18:21:33.426Z,14.60
2018-05-19T18:24:02.611Z,15.23
2018-05-19T18:26:31.042Z,16.83
2018-05-19T18:28:59.425Z,22.60
2018-05-19T18:31:27.823Z,28.00
2018-05-19T18:33:56.205Z,65.13
2018-05-19T18:36:24.587Z,23.50
2018-05-19T18:38:53.009Z,17.67
2018-05-19T18:41:21.398Z,17.40
2018-05-19T18:43:49.890Z,18.73
2018-05-19T18:46:18.289Z,17.07
2018-05-19T18:48:47.450Z,16.40
2018-05-19T18:51:15.855Z,16.97
2018-05-19T18:53:44.369Z,17.00
2018-05-19T18:56:12.903Z,16.70
2018-05-19T18:58:42.825Z,16.47
2018-05-19T19:01:11.257Z,28.83
2018-05-19T19:03:40.435Z,17.57
2018-05-19T19:06:08.849Z,18.50
2018-05-19T19:08:37.240Z,17.87
2018-05-19T19:11:05.629Z,17.80
2018-05-19T19:13:34.053Z,18.57
2018-05-19T19:16:02.476Z,19.37
2018-05-19T19:18:31.794Z,18.20
2018-05-19T19:21:00.210Z,21.50
2018-05-19T19:23:28.615Z,21.13
2018-05-19T19:25:57.036Z,21.60
2018-05-19T19:28:26.199Z,19.47
2018-05-19T19:30:54.598Z,17.20
2018-05-19T19:33:22.986Z,18.43
2018-05-19T19:35:52.155Z,18.87
2018-05-19T19:38:20.557Z,17.10
2018-05-19T19:40:50.270Z,17.23
2018-05-19T19:43:18.663Z,16.73
2018-05-19T19:45:47.045Z,17.93
2018-05-19T19:48:15.459Z,15.20
2018-05-19T19:50:43.881Z,14.50
2018-05-19T19:53:12.276Z,13.93
2018-05-19T19:55:40.702Z,14.83
2018-05-19T19:58:09.109Z,15.20
2018-05-19T20:00:37.541Z,13.93
2018-05-19T20:03:05.962Z,14.20
2018-05-19T20:05:34.400Z,14.80
2018-05-19T20:08:02.819Z,14.03
2018-05-19T20:10:31.973Z,15.97
2018-05-19T20:13:00.390Z,14.80
2018-05-19T20:15:29.554Z,15.00
2018-05-19T20:17:57.969Z,14.20
2018-05-19T20:20:26.423Z,13.93
2018-05-19T20:22:54.873Z,13.40
2018-05-19T20:25:23.364Z,15.07
2018-05-19T20:27:51.758Z,13.97
2018-05-19T20:30:20.144Z,13.60
2018-05-19T20:32:48.550Z,15.00
2018-05-19T20:35:16.975Z,13.37
2018-05-19T20:37:46.166Z,14.10
2018-05-19T20:40:15.317Z,14.17
2018-05-19T20:42:43.730Z,14.60
2018-05-19T20:45:12.921Z,14.37
2018-05-19T20:47:41.314Z,13.97
2018-05-19T20:50:09.718Z,14.20
2018-05-19T20:52:38.869Z,14.07
2018-05-19T20:55:07.351Z,13.40
2018-05-19T20:57:35.781Z,14.47
2018-05-19T21:00:04.174Z,14.60
2018-05-19T21:02:33.367Z,15.43
2018-05-19T21:05:02.538Z,15.32
2018-05-19T21:07:30.959Z,13.50
2018-05-19T21:10:00.156Z,14.98
2018-05-19T21:12:29.439Z,14.70
2018-05-19T21:14:57.941Z,15.97
2018-05-19T21:17:26.369Z,15.90
2018-05-19T21:19:54.792Z,16.00
2018-05-19T21:22:23.341Z,15.30
2018-05-19T21:24:51.771Z,14.50
2018-05-19T21:27:20.216Z,16.07
2018-05-19T21:29:48.626Z,14.23
2018-05-19T21:32:17.041Z,14.90
2018-05-19T21:34:46.202Z,16.63
2018-05-19T21:37:14.605Z,15.80
2018-05-19T21:39:43.043Z,16.03
2018-05-19T21:42:11.435Z,14.93
2018-05-19T21:44:39.829Z,15.53
2018-05-19T21:47:08.282Z,16.50
2018-05-19T21:49:36.714Z,15.68
2018-05-19T21:52:05.230Z,16.27
2018-05-19T21:54:34.392Z,17.08
2018-05-19T21:57:02.802Z,18.60
2018-05-19T21:59:32.010Z,16.85
2018-05-19T22:02:01.201Z,18.05
2018-05-19T22:04:29.601Z,16.73
2018-05-19T22:06:58.762Z,17.85
2018-05-19T22:09:27.254Z,18.40
2018-05-19T22:11:55.661Z,19.37
2018-05-19T22:14:24.864Z,19.20
2018-05-19T22:16:54.043Z,18.77
2018-05-19T22:19:22.461Z,19.40
2018-05-19T22:21:51.645Z,20.30
2018-05-19T22:24:20.046Z,18.83
2018-05-19T22:26:49.207Z,18.33
2018-05-19T22:29:17.630Z,18.30
2018-05-19T22:31:46.858Z,17.80
2018-05-19T22:34:15.751Z,17.45
2018-05-19T22:36:44.219Z,18.67
2018-05-19T22:39:12.618Z,18.62
2018-05-19T22:41:41.056Z,20.27
2018-05-19T22:44:09.567Z,20.52
2018-05-19T22:46:38.726Z,20.20
2018-05-19T22:49:07.297Z,21.27
2018-05-19T22:51:35.721Z,20.23
2018-05-19T22:54:04.100Z,21.05
2018-05-19T22:56:32.499Z,20.27
2018-05-19T22:59:00.981Z,20.70
2018-05-19T23:01:30.122Z,21.37
2018-05-19T23:03:58.502Z,20.30
2018-05-19T23:06:26.949Z,21.00
2018-05-19T23:08:56.100Z,20.80
2018-05-19T23:11:24.469Z,22.65
2018-05-19T23:13:52.898Z,18.52
2018-05-19T23:16:21.301Z,20.77
2018-05-19T23:18:50.459Z,22.60
2018-05-19T23:21:18.834Z,21.52
2018-05-19T23:23:47.216Z,20.52
2018-05-19T23:26:15.602Z,21.42
2018-05-19T23:28:43.969Z,22.42
2018-05-19T23:31:12.373Z,20.62
2018-05-19T23:33:40.776Z,20.62
2018-05-19T23:36:09.153Z,21.92
2018-05-19T23:38:37.570Z,23.12
2018-05-19T23:41:06.769Z,22.42
2018-05-19T23:43:35.919Z,21.23
2018-05-19T23:46:04.347Z,23.25
2018-05-19T23:48:32.722Z,21.20
2018-05-19T23:51:01.108Z,23.87
2018-05-19T23:53:29.485Z,22.60
2018-05-19T23:55:57.857Z,21.45
2018-05-19T23:58:26.267Z,22.48
